createdAt,value
2023-05-05T00:00:57.383Z,53.41
2023-05-05T00:03:24.895Z,53.91
2023-05-05T00:05:52.097Z,53.27
2023-05-05T00:08:18.561Z,53.49
2023-05-05T00:10:45.412Z,53.18
2023-05-05T00:13:11.929Z,53.42
2023-05-05T00:15:38.375Z,53.85
2023-05-05T00:18:05.043Z,53.66
2023-05-05T00:20:31.568Z,53.68
2023-05-05T00:22:58.159Z,53.87
2023-05-05T00:25:24.615Z,53.86
2023-05-05T00:27:51.016Z,53.95
2023-05-05T00:30:18.206Z,53.80
2023-05-05T00:32:44.700Z,54.00
2023-05-05T00:35:11.148Z,53.86
2023-05-05T00:37:37.592Z,53.67
2023-05-05T00:40:04.215Z,53.65
2023-05-05T00:42:41.172Z,53.84
2023-05-05T00:45:08.675Z,53.96
2023-05-05T00:47:35.261Z,53.78
2023-05-05T00:50:03.613Z,53.80
2023-05-05T00:52:30.023Z,53.69
2023-05-05T00:54:57.460Z,53.66
2023-05-05T00:57:24.731Z,53.78
2023-05-05T00:59:51.269Z,53.39
2023-05-05T01:02:18.868Z,53.58
2023-05-05T01:04:45.286Z,53.25
2023-05-05T01:07:27.782Z,53.32
2023-05-05T01:10:14.992Z,53.43
2023-05-05T01:12:58.636Z,53.73
2023-05-05T01:15:34.766Z,53.94
2023-05-05T01:18:35.683Z,54.33
2023-05-05T01:21:14.278Z,54.42
2023-05-05T01:24:05.482Z,53.73
2023-05-05T01:26:52.461Z,53.83
2023-05-05T01:29:46.387Z,53.99
2023-05-05T01:32:14.169Z,54.46
2023-05-05T01:34:44.142Z,54.12
2023-05-05T01:37:13.525Z,53.93
2023-05-05T01:39:40.708Z,53.55
2023-05-05T01:42:09.908Z,53.67
2023-05-05T01:44:36.657Z,53.69
2023-05-05T01:47:03.321Z,53.55
2023-05-05T01:49:29.761Z,53.37
2023-05-05T01:51:56.488Z,53.25
2023-05-05T01:54:24.122Z,53.14
2023-05-05T01:56:50.553Z,53.28
2023-05-05T01:59:17.218Z,52.89
2023-05-05T02:01:45.898Z,52.67
2023-05-05T02:04:12.830Z,52.75
2023-05-05T02:06:39.250Z,52.85
2023-05-05T02:09:05.697Z,52.62
2023-05-05T02:11:32.113Z,52.28
2023-05-05T02:13:58.832Z,52.58
2023-05-05T02:16:25.356Z,52.44
2023-05-05T02:18:51.875Z,52.97
2023-05-05T02:21:18.317Z,52.81
2023-05-05T02:23:46.990Z,52.93
2023-05-05T02:26:13.972Z,53.02
2023-05-05T02:28:42.726Z,53.05
2023-05-05T02:31:10.468Z,52.93
2023-05-05T02:33:36.951Z,53.11
2023-05-05T02:36:08.482Z,52.81
2023-05-05T02:38:34.926Z,52.73
2023-05-05T02:41:01.376Z,52.50
2023-05-05T02:43:27.870Z,52.57
2023-05-05T02:45:54.297Z,52.77
2023-05-05T02:48:21.009Z,52.74
2023-05-05T02:50:47.417Z,52.79
2023-05-05T02:53:13.874Z,52.52
2023-05-05T02:55:54.446Z,52.49
2023-05-05T02:58:27.780Z,52.73
2023-05-05T03:01:15.989Z,52.65
2023-05-05T03:03:50.293Z,52.66
2023-05-05T03:06:18.057Z,52.92
2023-05-05T03:08:49.973Z,52.78
2023-05-05T03:11:22.873Z,52.58
2023-05-05T03:13:51.675Z,52.82
2023-05-05T03:16:18.105Z,52.97
2023-05-05T03:18:45.060Z,53.30
2023-05-05T03:21:11.466Z,53.29
2023-05-05T03:23:37.952Z,53.39
2023-05-05T03:26:04.712Z,52.98
2023-05-05T03:28:31.135Z,52.71
2023-05-05T03:30:57.561Z,53.02
2023-05-05T03:33:24.010Z,53.16
2023-05-05T03:35:50.542Z,53.61
2023-05-05T03:38:17.719Z,53.84
2023-05-05T03:40:44.953Z,53.65
2023-05-05T03:43:11.761Z,53.92
2023-05-05T03:45:38.401Z,53.86
2023-05-05T03:48:05.255Z,54.13
2023-05-05T03:50:31.773Z,53.83
2023-05-05T03:52:58.227Z,54.50
2023-05-05T03:55:24.646Z,54.25
2023-05-05T03:57:51.180Z,54.46
2023-05-05T04:00:17.979Z,54.75
2023-05-05T04:02:44.553Z,54.77
2023-05-05T04:05:11.067Z,54.83
2023-05-05T04:07:37.500Z,54.46
2023-05-05T04:10:04.139Z,54.80
2023-05-05T04:12:30.636Z,55.32
2023-05-05T04:14:57.100Z,55.68
2023-05-05T04:17:23.704Z,55.70
2023-05-05T04:19:50.192Z,55.57
2023-05-05T04:22:16.607Z,55.78
2023-05-05T04:24:43.071Z,55.23
2023-05-05T04:27:09.496Z,55.10
2023-05-05T04:29:36.041Z,55.42
2023-05-05T04:32:02.521Z,55.61
2023-05-05T04:34:28.986Z,55.08
2023-05-05T04:36:55.478Z,55.28
2023-05-05T04:39:21.918Z,55.64
2023-05-05T04:41:48.371Z,55.83
2023-05-05T04:44:14.788Z,55.84
2023-05-05T04:46:41.436Z,55.52
2023-05-05T04:49:09.094Z,56.34
2023-05-05T04:51:35.569Z,56.16
2023-05-05T04:54:02.075Z,55.93
2023-05-05T04:56:31.081Z,56.59
2023-05-05T04:58:57.485Z,55.96
2023-05-05T05:01:23.949Z,55.74
2023-05-05T05:03:51.035Z,56.13
2023-05-05T05:06:17.497Z,56.14
2023-05-05T05:08:43.937Z,56.50
2023-05-05T05:11:10.477Z,55.92
2023-05-05T05:13:36.885Z,56.28
2023-05-05T05:16:03.364Z,55.40
2023-05-05T05:18:29.800Z,55.15
2023-05-05T05:20:56.290Z,55.71
2023-05-05T05:23:22.714Z,56.42
2023-05-05T05:25:49.121Z,56.36
2023-05-05T05:28:15.654Z,56.27
2023-05-05T05:30:42.079Z,56.10
2023-05-05T05:33:08.631Z,55.73
2023-05-05T05:35:35.092Z,55.10
2023-05-05T05:38:01.549Z,56.13
2023-05-05T05:40:28.592Z,56.80
2023-05-05T05:42:55.043Z,56.34
2023-05-05T05:45:21.856Z,56.59
2023-05-05T05:47:48.310Z,55.73
2023-05-05T05:50:14.949Z,56.46
2023-05-05T05:52:41.346Z,55.87
2023-05-05T05:55:08.220Z,57.10
2023-05-05T05:57:34.635Z,55.52
2023-05-05T06:00:02.121Z,56.12
2023-05-05T06:02:28.943Z,55.44
2023-05-05T06:04:55.542Z,54.36
2023-05-05T06:07:22.013Z,56.24
2023-05-05T06:09:48.413Z,55.01
2023-05-05T06:12:14.861Z,54.82
2023-05-05T06:14:41.267Z,55.08
2023-05-05T06:17:07.668Z,53.70
2023-05-05T06:19:35.047Z,53.07
2023-05-05T06:22:01.473Z,52.19
2023-05-05T06:24:27.895Z,52.48
2023-05-05T06:26:54.305Z,52.79
2023-05-05T06:29:20.948Z,51.26
2023-05-05T06:31:47.464Z,51.48
2023-05-05T06:34:13.921Z,51.45
2023-05-05T06:36:40.421Z,49.10
2023-05-05T06:39:07.098Z,48.88
2023-05-05T06:41:33.564Z,45.93
2023-05-05T06:44:01.477Z,44.88
2023-05-05T06:46:27.943Z,41.58
2023-05-05T06:48:54.442Z,41.66
2023-05-05T06:51:21.028Z,38.98
2023-05-05T06:53:47.525Z,37.64
2023-05-05T06:56:13.947Z,36.33
2023-05-05T06:58:41.104Z,35.28
2023-05-05T07:01:07.678Z,34.98
2023-05-05T07:03:34.212Z,33.96
2023-05-05T07:06:00.668Z,32.73
2023-05-05T07:08:27.073Z,33.42
2023-05-05T07:10:53.508Z,32.81
2023-05-05T07:13:19.986Z,31.13
2023-05-05T07:15:46.693Z,30.82
2023-05-05T07:18:16.369Z,30.70
2023-05-05T07:20:43.960Z,30.69
2023-05-05T07:23:11.187Z,29.12
2023-05-05T07:25:37.729Z,28.62
2023-05-05T07:28:04.403Z,28.80
2023-05-05T07:30:30.911Z,27.99
2023-05-05T07:32:57.386Z,26.81
2023-05-05T07:35:23.819Z,27.97
2023-05-05T07:37:50.844Z,26.16
2023-05-05T07:40:17.600Z,25.11
2023-05-05T07:42:44.013Z,25.81
2023-05-05T07:45:10.993Z,26.18
2023-05-05T07:47:37.448Z,24.83
2023-05-05T07:50:04.123Z,25.38
2023-05-05T07:52:45.366Z,25.30
2023-05-05T07:55:14.582Z,25.30
2023-05-05T07:57:41.121Z,24.50
2023-05-05T08:00:08.153Z,24.81
2023-05-05T08:02:34.893Z,24.60
2023-05-05T08:05:01.442Z,24.37
2023-05-05T08:07:27.874Z,23.68
2023-05-05T08:09:54.262Z,23.93
2023-05-05T08:12:20.915Z,23.43
2023-05-05T08:14:47.371Z,22.34
2023-05-05T08:17:13.983Z,22.13
2023-05-05T08:24:36.193Z,20.10
2023-05-05T08:54:16.006Z,18.07
2023-05-05T09:09:13.316Z,17.84
2023-05-05T09:27:20.393Z,20.84
2023-05-05T09:30:05.267Z,23.57
2023-05-05T09:32:47.411Z,25.44
2023-05-05T09:35:35.698Z,24.19
2023-05-05T09:38:11.366Z,25.81
2023-05-05T09:40:53.446Z,25.62
2023-05-05T09:43:23.359Z,25.73
2023-05-05T09:45:50.252Z,27.03
2023-05-05T09:48:24.708Z,26.77
2023-05-05T09:50:51.222Z,25.71
2023-05-05T09:53:18.288Z,26.16
2023-05-05T09:56:00.573Z,25.17
2023-05-05T09:58:28.185Z,25.82
2023-05-05T10:00:55.368Z,29.25
2023-05-05T10:03:21.861Z,27.30
2023-05-05T10:05:55.674Z,27.35
2023-05-05T10:08:29.320Z,27.83
2023-05-05T10:11:00.763Z,27.48
2023-05-05T10:13:27.659Z,27.13
2023-05-05T10:15:55.929Z,25.95
2023-05-05T10:18:23.229Z,27.45
2023-05-05T10:20:57.189Z,27.97
2023-05-05T10:23:24.758Z,29.43
2023-05-05T10:25:55.086Z,27.37
2023-05-05T10:28:56.683Z,29.01
2023-05-05T10:31:30.142Z,31.87
2023-05-05T10:34:03.756Z,30.57
2023-05-05T10:36:31.668Z,32.83
2023-05-05T10:38:58.209Z,29.92
2023-05-05T10:41:25.037Z,29.48
2023-05-05T10:43:51.756Z,30.30
2023-05-05T10:46:18.219Z,30.00
2023-05-05T10:48:51.194Z,31.26
2023-05-05T10:51:53.412Z,31.70
2023-05-05T10:54:24.964Z,31.36
2023-05-05T10:56:51.595Z,30.75
2023-05-05T10:59:39.525Z,30.60
2023-05-05T11:02:30.341Z,30.46
2023-05-05T11:05:15.190Z,29.73
2023-05-05T11:07:42.266Z,30.51
2023-05-05T11:10:09.900Z,29.10
2023-05-05T11:13:00.021Z,30.75
2023-05-05T11:15:26.497Z,28.70
2023-05-05T11:17:53.688Z,29.00
2023-05-05T11:20:35.836Z,28.88
2023-05-05T11:23:02.126Z,30.13
2023-05-05T11:25:34.493Z,28.72
2023-05-05T11:28:07.007Z,31.00
2023-05-05T11:30:33.467Z,29.12
2023-05-05T11:33:28.864Z,31.80
2023-05-05T11:35:55.919Z,32.60
2023-05-05T11:38:56.876Z,28.96
2023-05-05T11:41:32.365Z,30.32
2023-05-05T11:44:20.987Z,28.92
2023-05-05T11:46:53.456Z,28.99
2023-05-05T11:49:39.180Z,30.25
2023-05-05T11:52:07.706Z,31.71
2023-05-05T11:54:38.561Z,33.31
2023-05-05T11:57:07.148Z,31.54
2023-05-05T11:59:34.133Z,30.63
2023-05-05T12:02:00.582Z,32.21
2023-05-05T12:04:27.197Z,30.93
2023-05-05T12:06:53.653Z,31.67
2023-05-05T12:09:21.676Z,29.75
2023-05-05T12:11:57.978Z,31.66
2023-05-05T12:14:24.938Z,31.02
2023-05-05T12:16:58.279Z,30.85
2023-05-05T12:19:29.647Z,29.65
2023-05-05T12:21:56.589Z,28.42
2023-05-05T12:24:23.027Z,29.24
2023-05-05T12:26:49.445Z,31.17
2023-05-05T12:29:25.966Z,29.50
2023-05-05T12:31:52.470Z,29.97
2023-05-05T12:34:18.900Z,31.57
2023-05-05T12:36:45.353Z,31.48
2023-05-05T12:39:12.015Z,31.67
2023-05-05T12:41:38.421Z,34.73
2023-05-05T12:44:05.113Z,33.37
2023-05-05T12:46:31.899Z,33.28
2023-05-05T12:49:05.515Z,33.63
2023-05-05T12:51:35.889Z,33.23
2023-05-05T12:54:03.316Z,32.27
2023-05-05T12:56:39.647Z,32.96
2023-05-05T12:59:29.190Z,34.32
2023-05-05T13:01:56.591Z,33.83
2023-05-05T13:04:24.203Z,33.57
2023-05-05T13:07:07.435Z,33.36
2023-05-05T13:09:34.594Z,33.47
2023-05-05T13:12:03.107Z,31.57
2023-05-05T13:14:30.742Z,32.76
2023-05-05T13:16:57.355Z,30.42
2023-05-05T13:19:27.577Z,31.14
2023-05-05T13:21:57.401Z,30.68
2023-05-05T13:24:31.643Z,31.55
2023-05-05T13:27:04.963Z,35.12
2023-05-05T13:29:31.867Z,33.25
2023-05-05T13:31:58.362Z,33.43
2023-05-05T13:34:24.776Z,34.14
2023-05-05T13:36:51.798Z,34.94
2023-05-05T13:39:18.391Z,34.63
2023-05-05T13:41:45.298Z,34.20
2023-05-05T13:44:12.189Z,34.42
2023-05-05T13:46:38.659Z,35.52
2023-05-05T13:49:05.089Z,32.31
2023-05-05T13:51:31.526Z,35.05
2023-05-05T13:53:59.040Z,35.50
2023-05-05T13:56:27.545Z,33.57
2023-05-05T13:58:54.255Z,34.49
2023-05-05T14:01:20.768Z,35.98
2023-05-05T14:03:47.269Z,35.88
2023-05-05T14:06:13.738Z,34.56
2023-05-05T14:08:40.167Z,36.17
2023-05-05T14:11:06.644Z,37.12
2023-05-05T14:13:33.093Z,37.09
2023-05-05T14:15:59.622Z,39.28
2023-05-05T14:18:26.124Z,40.97
2023-05-05T14:20:52.663Z,41.53
2023-05-05T14:23:19.208Z,38.67
2023-05-05T14:25:45.657Z,39.91
2023-05-05T14:28:12.092Z,40.94
2023-05-05T14:30:39.411Z,41.54
2023-05-05T14:33:05.851Z,41.08
2023-05-05T14:35:32.334Z,39.30
2023-05-05T14:37:58.770Z,39.57
2023-05-05T14:40:25.231Z,40.58
2023-05-05T14:42:51.716Z,43.78
2023-05-05T14:45:18.132Z,44.51
2023-05-05T14:47:44.589Z,44.84
2023-05-05T14:50:11.142Z,45.05
2023-05-05T14:52:39.184Z,46.28
2023-05-05T14:55:06.743Z,48.28
2023-05-05T14:57:33.264Z,48.85
2023-05-05T14:59:59.687Z,50.15
2023-05-05T15:02:26.172Z,50.41
2023-05-05T15:04:53.102Z,48.09
2023-05-05T15:07:20.463Z,48.90
2023-05-05T15:09:46.930Z,47.65
2023-05-05T15:12:13.364Z,45.73
2023-05-05T15:14:39.860Z,46.24
2023-05-05T15:17:06.487Z,42.34
2023-05-05T15:19:32.933Z,42.48
2023-05-05T15:21:59.400Z,42.35
2023-05-05T15:24:26.191Z,41.70
2023-05-05T15:26:52.638Z,40.60
2023-05-05T15:29:19.070Z,40.85
2023-05-05T15:31:45.573Z,40.03
2023-05-05T15:34:12.031Z,39.77
2023-05-05T15:36:38.455Z,41.24
2023-05-05T15:39:04.942Z,40.19
2023-05-05T15:41:33.526Z,40.48
2023-05-05T15:44:00.659Z,39.35
2023-05-05T15:46:27.094Z,40.05
2023-05-05T15:48:53.549Z,42.73
2023-05-05T15:51:20.029Z,41.11
2023-05-05T15:53:47.124Z,40.08
2023-05-05T15:56:13.597Z,41.03
2023-05-05T15:58:40.027Z,38.78
2023-05-05T16:01:06.510Z,40.50
2023-05-05T16:03:33.103Z,39.38
2023-05-05T16:05:59.612Z,39.07
2023-05-05T16:08:26.048Z,38.01
2023-05-05T16:10:52.588Z,38.42
2023-05-05T16:13:19.185Z,38.77
2023-05-05T16:15:46.213Z,38.79
2023-05-05T16:18:12.674Z,38.30
2023-05-05T16:20:39.109Z,38.15
2023-05-05T16:23:05.598Z,38.57
2023-05-05T16:25:31.991Z,39.86
2023-05-05T16:28:00.030Z,39.70
2023-05-05T16:30:26.697Z,41.04
2023-05-05T16:32:54.322Z,40.18
2023-05-05T16:35:21.041Z,39.50
2023-05-05T16:37:47.472Z,41.92
2023-05-05T16:40:13.991Z,39.93
2023-05-05T16:42:41.883Z,40.48
2023-05-05T16:45:09.912Z,41.14
2023-05-05T16:47:37.172Z,40.79
2023-05-05T16:50:03.922Z,41.26
2023-05-05T16:52:30.450Z,41.43
2023-05-05T16:54:57.187Z,42.37
2023-05-05T16:57:23.709Z,41.44
2023-05-05T16:59:50.240Z,41.01
2023-05-05T17:02:16.658Z,42.27
2023-05-05T17:04:43.056Z,42.23
2023-05-05T17:07:09.458Z,41.81
2023-05-05T17:09:35.922Z,41.80
2023-05-05T17:12:04.000Z,42.44
2023-05-05T17:14:30.699Z,43.00
2023-05-05T17:16:57.128Z,42.09
2023-05-05T17:19:23.577Z,42.93
2023-05-05T17:21:50.019Z,44.47
2023-05-05T17:24:16.450Z,43.64
2023-05-05T17:26:42.863Z,44.17
2023-05-05T17:29:10.420Z,43.33
2023-05-05T17:31:38.805Z,44.27
2023-05-05T17:34:05.281Z,44.51
2023-05-05T17:36:31.733Z,45.08
2023-05-05T17:38:58.133Z,44.25
2023-05-05T17:41:25.579Z,43.57
2023-05-05T17:43:51.985Z,45.36
2023-05-05T17:46:18.414Z,46.03
2023-05-05T17:48:44.954Z,45.23
2023-05-05T17:51:11.399Z,44.10
2023-05-05T17:53:38.429Z,46.71
2023-05-05T17:56:07.199Z,46.84
2023-05-05T17:58:35.082Z,47.09
2023-05-05T18:01:01.525Z,47.04
2023-05-05T18:03:28.300Z,47.68
2023-05-05T18:05:54.912Z,48.19
2023-05-05T18:08:21.319Z,47.23
2023-05-05T18:10:47.861Z,50.17
2023-05-05T18:13:14.403Z,49.21
2023-05-05T18:15:41.069Z,50.04
2023-05-05T18:18:07.608Z,49.25
2023-05-05T18:20:34.171Z,49.65
2023-05-05T18:23:00.622Z,50.70
2023-05-05T18:25:27.098Z,51.42
2023-05-05T18:27:53.547Z,50.78
2023-05-05T18:30:19.983Z,50.88
2023-05-05T18:32:46.470Z,49.95
2023-05-05T18:35:13.017Z,49.72
2023-05-05T18:37:39.453Z,49.21
2023-05-05T18:40:06.964Z,49.13
2023-05-05T18:42:33.406Z,50.28
2023-05-05T18:44:59.804Z,50.22
2023-05-05T18:47:26.337Z,51.01
2023-05-05T18:49:52.831Z,51.11
2023-05-05T18:52:19.232Z,51.47
2023-05-05T18:54:46.027Z,51.93
2023-05-05T18:57:12.430Z,51.69
2023-05-05T18:59:38.878Z,51.79
2023-05-05T19:02:06.362Z,51.91
2023-05-05T19:04:36.429Z,52.42
2023-05-05T19:07:02.908Z,52.49
2023-05-05T19:09:32.290Z,52.79
2023-05-05T19:11:58.897Z,53.13
2023-05-05T19:14:25.490Z,53.21
2023-05-05T19:16:52.216Z,52.98
2023-05-05T19:19:18.672Z,53.10
2023-05-05T19:21:45.327Z,52.53
2023-05-05T19:24:11.768Z,53.03
2023-05-05T19:26:38.230Z,53.50
2023-05-05T19:29:04.923Z,53.44
2023-05-05T19:31:31.905Z,52.98
2023-05-05T19:34:00.196Z,52.88
2023-05-05T19:36:27.608Z,53.16
2023-05-05T19:38:54.907Z,53.17
2023-05-05T19:41:21.362Z,53.42
2023-05-05T19:43:47.825Z,53.75
2023-05-05T19:46:14.461Z,53.50
2023-05-05T19:48:41.261Z,54.47
2023-05-05T19:51:07.744Z,54.06
2023-05-05T19:53:34.167Z,54.62
2023-05-05T19:56:00.975Z,54.53
2023-05-05T19:58:27.413Z,54.48
2023-05-05T20:00:53.816Z,54.25
2023-05-05T20:03:21.077Z,54.54
2023-05-05T20:05:47.621Z,54.70
2023-05-05T20:08:14.213Z,54.77
2023-05-05T20:10:40.683Z,54.59
2023-05-05T20:13:07.242Z,54.63
2023-05-05T20:15:33.723Z,55.04
2023-05-05T20:18:00.259Z,54.93
2023-05-05T20:20:26.727Z,55.15
2023-05-05T20:22:53.223Z,55.32
2023-05-05T20:25:19.679Z,55.09
2023-05-05T20:27:46.219Z,55.28
2023-05-05T20:30:12.917Z,55.66
2023-05-05T20:32:39.438Z,55.62
2023-05-05T20:35:06.462Z,55.20
2023-05-05T20:37:33.075Z,55.17
2023-05-05T20:39:59.506Z,56.04
2023-05-05T20:42:27.503Z,55.83
2023-05-05T20:44:53.938Z,55.56
2023-05-05T20:47:20.577Z,56.22
2023-05-05T20:49:46.998Z,56.19
2023-05-05T20:52:13.439Z,56.40
2023-05-05T20:54:39.867Z,56.83
2023-05-05T20:57:07.021Z,57.31
2023-05-05T20:59:33.466Z,57.40
2023-05-05T21:02:00.573Z,56.95
2023-05-05T21:04:27.090Z,56.85
2023-05-05T21:06:53.496Z,57.41
2023-05-05T21:09:21.432Z,56.75
2023-05-05T21:11:48.745Z,56.38
2023-05-05T21:14:15.418Z,55.95
2023-05-05T21:16:42.513Z,56.27
2023-05-05T21:19:09.115Z,57.09
2023-05-05T21:21:35.526Z,59.90
2023-05-05T21:24:02.053Z,61.22
2023-05-05T21:26:28.510Z,61.41
2023-05-05T21:28:54.990Z,60.85
2023-05-05T21:31:22.656Z,60.90
2023-05-05T21:33:49.425Z,61.45
2023-05-05T21:36:17.494Z,61.71
2023-05-05T21:38:43.937Z,62.36
2023-05-05T21:41:10.378Z,62.51
2023-05-05T21:43:36.855Z,62.53
2023-05-05T21:46:04.413Z,62.33
2023-05-05T21:48:33.721Z,62.79
2023-05-05T21:51:00.841Z,62.93
2023-05-05T21:53:27.270Z,63.55
2023-05-05T21:55:53.697Z,64.04
2023-05-05T21:58:20.328Z,64.09
2023-05-05T22:00:49.348Z,64.47
2023-05-05T22:03:15.862Z,64.51
2023-05-05T22:05:42.354Z,64.16
2023-05-05T22:08:08.763Z,64.39
2023-05-05T22:10:35.147Z,64.20
2023-05-05T22:13:01.701Z,64.40
2023-05-05T22:15:32.796Z,64.27
2023-05-05T22:18:06.425Z,64.72
2023-05-05T22:20:32.898Z,64.42
2023-05-05T22:22:59.342Z,64.62
2023-05-05T22:25:26.308Z,64.82
2023-05-05T22:27:52.775Z,65.42
2023-05-05T22:30:19.289Z,65.75
2023-05-05T22:32:46.295Z,65.87
2023-05-05T22:35:13.077Z,66.11
2023-05-05T22:37:39.572Z,66.17
2023-05-05T22:40:09.449Z,65.78
2023-05-05T22:42:36.057Z,65.60
2023-05-05T22:45:02.499Z,65.41
2023-05-05T22:47:28.924Z,65.59
2023-05-05T22:49:55.416Z,64.86
2023-05-05T22:52:21.838Z,65.44
2023-05-05T22:54:48.243Z,65.05
2023-05-05T22:57:14.642Z,65.83
2023-05-05T22:59:41.071Z,65.55
2023-05-05T23:02:07.571Z,65.60
2023-05-05T23:04:34.095Z,65.23
2023-05-05T23:07:00.658Z,65.14
2023-05-05T23:09:27.108Z,65.65
2023-05-05T23:11:53.550Z,65.09
2023-05-05T23:14:20.128Z,65.31
2023-05-05T23:16:46.617Z,65.30
2023-05-05T23:19:13.480Z,65.51
2023-05-05T23:21:52.115Z,65.79
2023-05-05T23:24:19.924Z,65.98
2023-05-05T23:26:46.351Z,66.53
2023-05-05T23:29:12.772Z,66.91
2023-05-05T23:31:39.204Z,66.97
2023-05-05T23:34:05.693Z,66.55
2023-05-05T23:36:32.118Z,65.97
2023-05-05T23:38:58.522Z,65.85
2023-05-05T23:41:24.960Z,65.69
2023-05-05T23:43:51.347Z,66.25
2023-05-05T23:46:17.894Z,66.38
2023-05-05T23:48:44.333Z,66.57
2023-05-05T23:51:10.751Z,66.04
2023-05-05T23:53:37.171Z,66.44
2023-05-05T23:56:03.608Z,66.44
2023-05-05T23:58:30.116Z,66.48
